createdAt,value
2018-07-16T00:01:49.888Z,100034.67
2018-07-16T00:04:53.413Z,100029.98
2018-07-16T00:07:56.789Z,100031.74
2018-07-16T00:11:00.238Z,100025.95
2018-07-16T00:14:03.758Z,100029.44
2018-07-16T00:17:07.268Z,100024.83
2018-07-16T00:20:10.779Z,100018.41
2018-07-16T00:23:14.272Z,100017.95
2018-07-16T00:26:18.426Z,100014.00
2018-07-16T00:29:21.742Z,100016.29
2018-07-16T00:32:25.052Z,100009.88
2018-07-16T00:35:32.122Z,100006.46
2018-07-16T00:38:36.712Z,100002.34
2018-07-16T00:41:40.440Z,100002.73
2018-07-16T00:44:43.951Z,99998.05
2018-07-16T00:47:48.254Z,99993.63
2018-07-16T00:50:51.752Z,99995.54
2018-07-16T00:53:55.147Z,99996.80
2018-07-16T00:57:05.656Z,99989.61
2018-07-16T01:00:10.725Z,99985.09
2018-07-16T01:03:15.541Z,99981.84
2018-07-16T01:06:19.168Z,99978.77
2018-07-16T01:09:23.581Z,99963.54
2018-07-16T01:12:27.598Z,99972.34
2018-07-16T01:15:31.782Z,99977.16
2018-07-16T01:18:35.816Z,99977.55
2018-07-16T01:21:39.683Z,99967.92
2018-07-16T01:24:44.306Z,99960.61
2018-07-16T01:27:49.068Z,99965.63
2018-07-16T01:30:53.429Z,99963.89
2018-07-16T01:33:57.680Z,99965.54
2018-07-16T01:37:01.059Z,99960.34
2018-07-16T01:40:04.511Z,99950.75
2018-07-16T01:43:07.921Z,99956.60
2018-07-16T01:46:11.324Z,99963.52
2018-07-16T01:49:14.743Z,99966.88
2018-07-16T01:52:18.104Z,99970.72
2018-07-16T01:55:21.514Z,99967.55
2018-07-16T01:58:25.093Z,99960.75
2018-07-16T02:01:28.567Z,99950.66
2018-07-16T02:04:32.092Z,99953.16
2018-07-16T02:07:35.531Z,99949.91
2018-07-16T02:10:38.908Z,99943.08
2018-07-16T02:13:42.258Z,99940.21
2018-07-16T02:16:45.581Z,99940.12
2018-07-16T02:19:48.967Z,99935.91
2018-07-16T02:22:52.486Z,99934.56
2018-07-16T02:25:55.773Z,99935.02
2018-07-16T02:28:59.072Z,99936.28
2018-07-16T02:32:02.453Z,99934.92
2018-07-16T02:35:05.893Z,99942.70
2018-07-16T02:38:09.337Z,99939.70
2018-07-16T02:41:12.718Z,99938.70
2018-07-16T02:44:16.096Z,99934.25
2018-07-16T02:47:19.427Z,99940.20
2018-07-16T02:50:22.902Z,99944.41
2018-07-16T02:53:26.263Z,99939.73
2018-07-16T02:56:29.680Z,99940.50
2018-07-16T02:59:33.045Z,99938.18
2018-07-16T03:02:37.670Z,99937.04
2018-07-16T03:05:41.026Z,99936.15
2018-07-16T03:08:44.389Z,99936.45
2018-07-16T03:11:48.526Z,99938.48
2018-07-16T03:14:51.938Z,99939.25
2018-07-16T03:17:55.336Z,99937.54
2018-07-16T03:20:58.672Z,99937.77
2018-07-16T03:24:01.972Z,99935.95
2018-07-16T03:27:05.422Z,99941.91
2018-07-16T03:30:08.743Z,99945.48
2018-07-16T03:33:12.062Z,99936.27
2018-07-16T03:36:15.441Z,99935.08
2018-07-16T03:39:19.000Z,99931.38
2018-07-16T03:42:22.500Z,99932.17
2018-07-16T03:45:25.906Z,99933.99
2018-07-16T03:48:29.305Z,99939.23
2018-07-16T03:51:32.731Z,99933.56
2018-07-16T03:54:40.602Z,99939.31
2018-07-16T03:57:46.862Z,99932.25
2018-07-16T04:00:50.364Z,99935.92
2018-07-16T04:03:54.874Z,99925.59
2018-07-16T04:07:02.699Z,99927.76
2018-07-16T04:10:06.172Z,99933.28
2018-07-16T04:13:09.808Z,99934.16
2018-07-16T04:16:13.536Z,99939.40
2018-07-16T04:19:17.174Z,99938.91
2018-07-16T04:22:21.476Z,99933.47
2018-07-16T04:25:25.076Z,99937.06
2018-07-16T04:28:28.541Z,99936.20
2018-07-16T04:31:32.397Z,99933.31
2018-07-16T04:34:36.311Z,99940.92
2018-07-16T04:37:39.895Z,99946.42
2018-07-16T04:40:43.571Z,99936.56
2018-07-16T04:43:46.923Z,99939.13
2018-07-16T04:46:50.460Z,99932.17
2018-07-16T04:49:54.225Z,99930.00
2018-07-16T04:52:57.861Z,99933.16
2018-07-16T04:56:01.550Z,99933.74
2018-07-16T04:59:05.200Z,99934.55
2018-07-16T05:02:08.750Z,99937.34
2018-07-16T05:05:12.698Z,99935.83
2018-07-16T05:08:16.469Z,99931.64
2018-07-16T05:11:19.864Z,99931.17
2018-07-16T05:14:23.550Z,99928.69
2018-07-16T05:17:27.294Z,99934.44
2018-07-16T05:20:34.196Z,99937.48
2018-07-16T05:23:37.615Z,99931.19
2018-07-16T05:26:46.656Z,99928.06
2018-07-16T05:29:55.720Z,99925.23
2018-07-16T05:33:11.379Z,99913.86
2018-07-16T06:50:31.114Z,99903.67
2018-07-16T06:53:34.677Z,99899.52
2018-07-16T06:56:44.577Z,99899.69
2018-07-16T06:59:48.006Z,99896.93
2018-07-16T07:02:51.300Z,99899.33
2018-07-16T07:05:54.699Z,99892.73
2018-07-16T07:08:58.398Z,99897.25
2018-07-16T07:12:01.804Z,99894.50
2018-07-16T07:15:05.337Z,99890.86
2018-07-16T07:18:08.793Z,99883.32
2018-07-16T07:21:12.292Z,99892.50
2018-07-16T07:24:15.606Z,99888.59
2018-07-16T07:27:19.064Z,99888.84
2018-07-16T07:30:22.500Z,99890.55
2018-07-16T07:33:26.059Z,99889.39
2018-07-16T07:36:29.432Z,99881.73
2018-07-16T07:39:32.963Z,99889.59
2018-07-16T07:42:36.341Z,99889.97
2018-07-16T07:45:39.710Z,99883.59
2018-07-16T07:48:43.096Z,99887.88
2018-07-16T07:51:47.738Z,99891.81
2018-07-16T07:54:51.436Z,99883.11
2018-07-16T07:57:54.681Z,99883.05
2018-07-16T08:00:58.011Z,99875.43
2018-07-16T08:04:01.314Z,99873.88
2018-07-16T08:07:13.656Z,99873.46
2018-07-16T08:10:17.001Z,99873.59
2018-07-16T08:13:20.332Z,99876.77
2018-07-16T08:16:23.669Z,99873.13
2018-07-16T08:19:27.015Z,99864.32
2018-07-16T08:22:30.256Z,99857.61
2018-07-16T08:25:34.650Z,99854.61
2018-07-16T08:28:38.142Z,99864.37
2018-07-16T08:31:42.186Z,99862.14
2018-07-16T08:34:45.338Z,99868.95
2018-07-16T08:37:48.949Z,99855.80
2018-07-16T08:40:52.237Z,99865.78
2018-07-16T08:43:55.475Z,99863.39
2018-07-16T08:46:58.811Z,99887.75
2018-07-16T08:50:02.074Z,99860.82
2018-07-16T08:53:05.812Z,99861.08
2018-07-16T08:56:09.163Z,99861.30
2018-07-16T08:59:12.474Z,99864.88
2018-07-16T09:02:15.812Z,99867.33
2018-07-16T09:05:19.109Z,99866.84
2018-07-16T09:08:22.394Z,99867.27
2018-07-16T09:11:25.815Z,99863.33
2018-07-16T09:14:29.038Z,99866.52
2018-07-16T09:17:32.341Z,99869.16
2018-07-16T09:20:35.597Z,99867.94
2018-07-16T09:23:38.923Z,99863.67
2018-07-16T09:26:42.306Z,99859.47
2018-07-16T09:29:45.749Z,99858.14
2018-07-16T09:32:49.113Z,99860.88
2018-07-16T09:35:52.444Z,99862.91
2018-07-16T09:38:55.739Z,99857.52
2018-07-16T09:41:59.188Z,99858.86
2018-07-16T09:45:04.606Z,99853.81
2018-07-16T09:48:07.991Z,99858.58
2018-07-16T09:51:11.467Z,99851.95
2018-07-16T09:54:14.874Z,99854.53
2018-07-16T09:57:18.238Z,99845.45
2018-07-16T10:00:27.503Z,99852.80
2018-07-16T10:03:30.947Z,99851.30
2018-07-16T10:06:34.248Z,99854.73
2018-07-16T10:09:37.510Z,99850.59
2018-07-16T10:12:40.878Z,99846.86
2018-07-16T10:15:44.254Z,99854.50
2018-07-16T10:18:47.541Z,99848.27
2018-07-16T10:21:50.950Z,99848.13
2018-07-16T10:24:54.262Z,99847.69
2018-07-16T10:27:57.592Z,99847.06
2018-07-16T10:31:00.876Z,99845.94
2018-07-16T10:34:04.117Z,99846.98
2018-07-16T10:37:07.399Z,99839.84
2018-07-16T10:40:10.760Z,99839.38
2018-07-16T10:43:14.003Z,99832.77
2018-07-16T10:46:17.285Z,99829.31
2018-07-16T10:49:20.562Z,99829.31
2018-07-16T10:52:23.766Z,99823.83
2018-07-16T10:55:26.976Z,99825.24
2018-07-16T10:58:30.182Z,99820.71
2018-07-16T11:01:33.432Z,99820.57
2018-07-16T11:04:36.631Z,99823.31
2018-07-16T11:07:39.720Z,99815.66
2018-07-16T11:10:42.833Z,99814.44
2018-07-16T11:13:46.014Z,99769.02
2018-07-16T11:16:49.133Z,99810.68
2018-07-16T11:19:52.275Z,99820.50
2018-07-16T11:22:55.383Z,99811.54
2018-07-16T11:25:58.612Z,99809.23
2018-07-16T11:29:01.827Z,99801.17
2018-07-16T11:32:05.168Z,99801.17
2018-07-16T11:35:08.469Z,99807.16
2018-07-16T11:38:11.689Z,99804.51
2018-07-16T11:41:16.635Z,99800.73
2018-07-16T11:44:20.220Z,99794.76
2018-07-16T11:47:23.823Z,99802.00
2018-07-16T11:50:28.288Z,99791.41
2018-07-16T11:53:31.797Z,99794.83
2018-07-16T11:56:35.930Z,99790.25
2018-07-16T11:59:40.823Z,99781.85
2018-07-16T12:02:44.130Z,99782.22
2018-07-16T12:05:48.280Z,99782.54
2018-07-16T12:08:54.573Z,99776.05
2018-07-16T12:11:58.050Z,99774.33
2018-07-16T12:15:01.299Z,99777.57
2018-07-16T12:18:04.889Z,99766.98
2018-07-16T12:21:08.551Z,99763.41
2018-07-16T12:24:12.345Z,99766.30
2018-07-16T12:27:16.471Z,99757.44
2018-07-16T12:30:19.593Z,99762.89
2018-07-16T12:33:22.872Z,99757.61
2018-07-16T12:36:26.073Z,99752.59
2018-07-16T12:39:29.226Z,99755.13
2018-07-16T12:42:32.368Z,99745.03
2018-07-16T12:45:35.516Z,99742.00
2018-07-16T12:48:38.649Z,99740.45
2018-07-16T12:51:41.817Z,99737.38
2018-07-16T12:54:45.129Z,99735.44
2018-07-16T12:57:48.214Z,99729.03
2018-07-16T13:00:51.447Z,99732.67
2018-07-16T13:03:54.624Z,99730.11
2018-07-16T13:06:57.911Z,99721.81
2018-07-16T13:10:01.039Z,99716.02
2018-07-16T13:13:04.267Z,99650.95
2018-07-16T13:16:07.416Z,99704.23
2018-07-16T13:19:10.612Z,99704.49
2018-07-16T13:22:14.067Z,99694.91
2018-07-16T13:25:17.610Z,99695.29
2018-07-16T13:28:22.559Z,99692.12
2018-07-16T13:31:26.454Z,99691.39
2018-07-16T13:34:29.614Z,99689.73
2018-07-16T13:37:32.943Z,99682.19
2018-07-16T13:40:36.179Z,99672.70
2018-07-16T13:43:39.417Z,99668.81
2018-07-16T13:46:42.700Z,99673.67
2018-07-16T13:49:45.983Z,99674.47
2018-07-16T13:52:49.418Z,99674.47
2018-07-16T13:55:52.581Z,99671.16
2018-07-16T13:58:55.873Z,99676.19
2018-07-16T14:01:59.030Z,99664.94
2018-07-16T14:05:02.251Z,99665.80
2018-07-16T14:08:05.461Z,99668.42
2018-07-16T14:11:08.712Z,99664.59
2018-07-16T14:14:12.095Z,99660.74
2018-07-16T14:17:15.450Z,99655.33
2018-07-16T14:20:18.765Z,99665.95
2018-07-16T14:23:22.080Z,99659.67
2018-07-16T14:26:25.395Z,99658.64
2018-07-16T14:29:28.671Z,99657.37
2018-07-16T14:32:31.945Z,99650.13
2018-07-16T14:35:35.204Z,99644.59
2018-07-16T14:38:38.459Z,99653.27
2018-07-16T14:41:41.855Z,99649.51
2018-07-16T14:44:45.138Z,99640.20
2018-07-16T14:47:48.402Z,99645.29
2018-07-16T14:50:51.733Z,99645.78
2018-07-16T14:53:55.205Z,99640.38
2018-07-16T14:56:58.720Z,99639.93
2018-07-16T15:00:01.966Z,99645.38
2018-07-16T15:03:05.801Z,99644.52
2018-07-16T15:06:09.318Z,99644.89
2018-07-16T15:09:12.783Z,99647.30
2018-07-16T15:12:16.186Z,99633.74
2018-07-16T15:15:19.661Z,99635.59
2018-07-16T15:18:22.988Z,99637.98
2018-07-16T15:21:26.537Z,99628.45
2018-07-16T15:24:29.724Z,99628.42
2018-07-16T15:27:33.022Z,99629.84
2018-07-16T15:30:36.115Z,99633.75
2018-07-16T15:33:39.441Z,99623.00
2018-07-16T15:36:42.713Z,99624.62
2018-07-16T15:39:45.959Z,99629.06
2018-07-16T15:42:49.285Z,99630.57
2018-07-16T15:45:52.532Z,99637.93
2018-07-16T15:48:55.847Z,99632.97
2018-07-16T15:51:59.116Z,99620.86
2018-07-16T15:55:02.530Z,99629.52
2018-07-16T15:58:05.960Z,99622.36
2018-07-16T16:01:09.303Z,99619.32
2018-07-16T16:04:12.751Z,99612.16
2018-07-16T16:07:16.028Z,99612.28
2018-07-16T16:10:19.420Z,99612.69
2018-07-16T16:13:22.807Z,99608.61
2018-07-16T16:16:26.219Z,99608.42
2018-07-16T16:19:29.533Z,99610.20
2018-07-16T16:22:32.896Z,99617.89
2018-07-16T16:25:36.209Z,99618.92
2018-07-16T16:28:39.604Z,99617.05
2018-07-16T16:31:43.043Z,99608.17
2018-07-16T16:34:46.548Z,99610.21
2018-07-16T16:37:49.990Z,99612.79
2018-07-16T16:40:53.340Z,99605.30
2018-07-16T16:43:56.709Z,99610.23
2018-07-16T16:47:00.181Z,99606.82
2018-07-16T16:50:04.101Z,99605.44
2018-07-16T16:53:07.445Z,99602.02
2018-07-16T16:56:11.880Z,99602.54
2018-07-16T16:59:15.458Z,99603.58
2018-07-16T17:02:18.939Z,99598.09
2018-07-16T17:05:23.581Z,99602.38
2018-07-16T17:08:27.593Z,99599.83
2018-07-16T17:11:30.976Z,99598.78
2018-07-16T17:14:34.725Z,99604.25
2018-07-16T17:17:38.270Z,99603.40
2018-07-16T17:20:41.767Z,99600.33
2018-07-16T17:23:45.430Z,99599.14
2018-07-16T17:26:48.826Z,99604.59
2018-07-16T17:29:52.191Z,99606.46
2018-07-16T17:32:55.939Z,99609.71
2018-07-16T17:36:00.215Z,99612.43
2018-07-16T17:39:05.044Z,99614.45
2018-07-16T17:42:08.531Z,99609.47
2018-07-16T17:45:11.959Z,99615.95
2018-07-16T17:48:16.045Z,99616.83
2018-07-16T17:51:20.476Z,99637.77
2018-07-16T17:54:24.352Z,99627.52
2018-07-16T17:57:28.242Z,99624.75
2018-07-16T18:00:32.021Z,99625.81
2018-07-16T18:03:35.813Z,99629.74
2018-07-16T18:06:39.566Z,99627.02
2018-07-16T18:09:43.131Z,99631.73
2018-07-16T18:12:46.635Z,99625.65
2018-07-16T18:15:50.049Z,99633.30
2018-07-16T18:18:53.485Z,99630.91
2018-07-16T18:21:57.592Z,99632.77
2018-07-16T18:25:01.405Z,99631.32
2018-07-16T18:28:05.301Z,99633.80
2018-07-16T18:31:08.591Z,99639.45
2018-07-16T18:34:12.496Z,99647.91
2018-07-16T18:37:16.603Z,99644.67
2018-07-16T18:40:20.270Z,99641.78
2018-07-16T18:43:23.903Z,99642.87
2018-07-16T18:46:27.288Z,99652.05
2018-07-16T18:49:31.549Z,99653.08
2018-07-16T18:52:35.040Z,99652.83
2018-07-16T18:55:38.714Z,99658.16
2018-07-16T18:58:42.746Z,99656.17
2018-07-16T19:01:46.618Z,99658.86
2018-07-16T19:04:50.502Z,99657.94
2018-07-16T19:07:55.522Z,99667.30
2018-07-16T19:10:59.163Z,99669.12
2018-07-16T19:14:03.546Z,99674.50
2018-07-16T19:17:06.968Z,99676.57
2018-07-16T19:20:10.465Z,99678.64
2018-07-16T19:23:14.136Z,99678.16
2018-07-16T19:26:18.168Z,99685.72
2018-07-16T19:29:22.899Z,99694.83
2018-07-16T19:32:26.574Z,99703.20
2018-07-16T19:35:30.341Z,99700.42
2018-07-16T19:38:34.195Z,99702.17
2018-07-16T19:41:38.989Z,99705.13
2018-07-16T19:44:43.166Z,99708.09
2018-07-16T19:47:46.727Z,99713.89
2018-07-16T19:50:50.084Z,99714.11
2018-07-16T19:53:53.250Z,99706.90
2018-07-16T19:56:56.638Z,99704.42
2018-07-16T19:59:59.824Z,99715.34
2018-07-16T20:03:03.104Z,99716.08
2018-07-16T20:06:06.380Z,99718.13
2018-07-16T20:09:09.614Z,99718.48
2018-07-16T20:12:31.457Z,99720.15
2018-07-16T20:15:34.755Z,99720.77
2018-07-16T20:18:37.925Z,99725.83
2018-07-16T20:21:41.216Z,99726.37
2018-07-16T20:24:44.769Z,99727.03
2018-07-16T20:27:48.384Z,99730.81
2018-07-16T20:30:51.608Z,99733.08
2018-07-16T20:33:54.896Z,99738.24
2018-07-16T20:36:58.300Z,99740.51
2018-07-16T20:40:01.728Z,99744.25
2018-07-16T20:43:05.226Z,99727.27
2018-07-16T20:46:08.447Z,99737.33
2018-07-16T20:49:12.315Z,99736.06
2018-07-16T20:52:15.654Z,99739.22
2018-07-16T20:55:19.690Z,99745.78
2018-07-16T20:58:23.235Z,99751.36
2018-07-16T21:01:26.559Z,99759.42
2018-07-16T21:04:29.984Z,99755.73
2018-07-16T21:07:33.337Z,99746.69
2018-07-16T21:10:36.594Z,99754.39
2018-07-16T21:13:39.895Z,99755.87
2018-07-16T21:16:43.292Z,99758.58
2018-07-16T21:19:46.609Z,99769.81
2018-07-16T21:22:50.998Z,99764.71
2018-07-16T21:25:54.332Z,99773.77
2018-07-16T21:28:57.566Z,99776.59
2018-07-16T21:32:03.330Z,99765.78
2018-07-16T21:35:06.840Z,99771.70
2018-07-16T21:38:10.180Z,99778.99
2018-07-16T21:41:13.467Z,99779.33
2018-07-16T21:44:16.733Z,99781.34
2018-07-16T21:47:20.098Z,99780.00
2018-07-16T21:50:23.436Z,99780.60
2018-07-16T21:53:26.750Z,99785.04
2018-07-16T21:56:30.368Z,99790.94
2018-07-16T21:59:33.528Z,99797.42
2018-07-16T22:02:36.778Z,99785.51
2018-07-16T22:05:40.020Z,99788.48
2018-07-16T22:08:43.248Z,99787.49
2018-07-16T22:11:46.567Z,99783.70
2018-07-16T22:14:49.780Z,99789.00
2018-07-16T22:17:54.133Z,99793.92
2018-07-16T22:20:57.349Z,99790.73
2018-07-16T22:24:00.563Z,99790.09
2018-07-16T22:27:04.040Z,99790.21
2018-07-16T22:30:07.212Z,99788.72
2018-07-16T22:33:10.446Z,99792.88
2018-07-16T22:36:13.682Z,99795.34
2018-07-16T22:39:16.941Z,99795.35
2018-07-16T22:42:20.198Z,99798.66
2018-07-16T22:45:23.654Z,99798.42
2018-07-16T22:48:26.879Z,99800.63
2018-07-16T22:51:30.148Z,99804.05
2018-07-16T22:54:33.325Z,99806.89
2018-07-16T22:57:36.564Z,99804.30
2018-07-16T23:00:39.818Z,99802.58
2018-07-16T23:03:43.059Z,99801.00
2018-07-16T23:06:46.272Z,99801.23
2018-07-16T23:09:51.565Z,99802.83
2018-07-16T23:12:54.846Z,99806.51
2018-07-16T23:15:58.035Z,99796.43
2018-07-16T23:19:01.290Z,99797.66
2018-07-16T23:22:04.537Z,99799.50
2018-07-16T23:25:08.605Z,99807.47
2018-07-16T23:28:11.797Z,99801.47
2018-07-16T23:31:15.046Z,99799.09
2018-07-16T23:34:18.267Z,99805.38
2018-07-16T23:37:21.569Z,99800.22
2018-07-16T23:40:27.072Z,99803.47
2018-07-16T23:43:30.282Z,99805.66
2018-07-16T23:46:33.549Z,99812.77
2018-07-16T23:49:36.761Z,99809.16
2018-07-16T23:52:39.995Z,99816.84
2018-07-16T23:55:43.239Z,99812.23
2018-07-16T23:58:46.470Z,99812.80
